Time;durP1;ratioP1;P1;durP2;ratioP2;P2;SDS_P1;SDS_P2;PMS_P1;PMS_P2;Temp;Humidity;BMP_temperature;BMP_pressure;BME280_temperature;BME280_humidity;BME280_pressure;Samples;Min_cycle;Max_cycle;Signal;HPM_P1;HPM_P2
2022/08/11 00:03:53;;;;;;;4.35;1.95;;;;;;;19.06;61.49;101855.25;10580223;28;20449;-82
2022/08/11 00:08:56;;;;;;;3.47;1.93;;;;;;;19.00;61.07;101853.72;10564275;28;20481;-81
2022/08/11 00:13:59;;;;;;;5.30;1.90;;;;;;;19.00;61.02;101857.31;10581504;28;20489;-83
2022/08/11 00:19:01;;;;;;;4.18;1.92;;;;;;;19.01;61.08;101858.13;10553167;28;20040;-85
2022/08/11 00:24:09;;;;;;;4.50;2.22;;;;;;;18.88;61.48;101849.47;10571007;28;20059;-82
2022/08/11 00:29:12;;;;;;;3.80;2.13;;;;;;;18.82;61.39;101842.38;10554022;28;20044;-82
2022/08/11 00:34:15;;;;;;;2.15;1.95;;;;;;;18.86;61.02;101845.34;10603532;28;20062;-82
2022/08/11 00:39:20;;;;;;;6.68;2.38;;;;;;;18.79;60.99;101842.16;10591502;28;20043;-82
2022/08/11 00:44:56;;;;;;;3.65;2.05;;;;;;;18.77;60.98;101834.13;10560677;28;20040;-82
2022/08/11 00:50:18;;;;;;;4.07;2.00;;;;;;;18.70;60.92;101833.69;10572351;28;20046;-78
2022/08/11 00:55:55;;;;;;;5.43;2.13;;;;;;;18.67;60.79;101842.66;10583231;28;20046;-77
2022/08/11 01:01:15;;;;;;;2.30;2.10;;;;;;;18.70;59.93;101839.25;10595177;28;20047;-77
2022/08/11 01:06:50;;;;;;;3.72;1.98;;;;;;;18.63;59.53;101842.44;10599147;28;20524;-77
2022/08/11 01:12:09;;;;;;;2.63;1.85;;;;;;;18.67;59.71;101851.00;10589313;28;20035;-77
2022/08/11 01:17:42;;;;;;;4.53;2.33;;;;;;;18.68;59.57;101844.28;10580696;28;20036;-77
2022/08/11 01:23:02;;;;;;;4.63;2.17;;;;;;;18.72;58.86;101845.31;10602150;28;20039;-76
2022/08/11 01:28:43;;;;;;;3.35;2.05;;;;;;;18.74;58.79;101853.34;10603091;28;20044;-77
2022/08/11 01:34:06;;;;;;;2.45;1.88;;;;;;;18.68;58.67;101847.06;10523512;28;20161;-78
2022/08/11 01:39:30;;;;;;;3.63;2.03;;;;;;;18.68;58.72;101852.63;10608118;28;20405;-76
2022/08/11 01:44:54;;;;;;;4.68;1.88;;;;;;;18.64;58.25;101854.38;10591078;28;20051;-77
2022/08/11 01:50:20;;;;;;;5.05;1.90;;;;;;;18.66;58.25;101858.50;10585808;28;20043;-77
2022/08/11 01:55:57;;;;;;;7.30;2.15;;;;;;;18.73;57.80;101852.53;10572825;28;20059;-76
2022/08/11 02:01:27;;;;;;;6.43;2.00;;;;;;;18.74;57.90;101858.91;10511725;28;20043;-77
2022/08/11 02:07:10;;;;;;;2.70;1.88;;;;;;;18.63;58.27;101845.22;10572612;28;20031;-77
2022/08/11 02:12:40;;;;;;;4.28;1.85;;;;;;;18.63;58.05;101841.63;10578654;28;20048;-77
2022/08/11 02:18:01;;;;;;;3.33;1.67;;;;;;;18.61;58.34;101843.84;10590946;28;20036;-76
2022/08/11 02:23:40;;;;;;;3.97;1.77;;;;;;;18.57;58.49;101838.09;10591202;28;20040;-76
2022/08/11 02:28:52;;;;;;;2.80;1.58;;;;;;;18.51;59.15;101838.47;10591309;28;20040;-76
2022/08/11 02:34:04;;;;;;;2.20;1.60;;;;;;;18.53;59.46;101837.03;10589351;28;20047;-76
2022/08/11 02:39:12;;;;;;;2.72;2.00;;;;;;;18.63;59.46;101838.84;10563522;28;20040;-76
2022/08/11 02:44:38;;;;;;;3.63;1.90;;;;;;;18.62;59.94;101840.75;10586708;28;20421;-76
2022/08/11 02:49:53;;;;;;;2.23;1.63;;;;;;;18.61;60.14;101833.56;10607132;28;20051;-76
2022/08/11 02:55:18;;;;;;;2.45;1.77;;;;;;;18.58;60.40;101836.97;10580318;28;20028;-76
2022/08/11 03:00:21;;;;;;;3.33;1.77;;;;;;;18.48;60.54;101827.97;10584637;28;20426;-77
2022/08/11 03:05:29;;;;;;;2.42;1.75;;;;;;;18.46;60.60;101821.88;10552879;28;20043;-76
2022/08/11 03:16:45;;;;;;;1.85;1.48;;;;;;;18.28;60.43;101826.38;10515537;28;20528;-76
2022/08/11 03:22:25;;;;;;;2.13;1.60;;;;;;;18.50;59.79;101820.97;10599377;28;20039;-77
2022/08/11 03:27:35;;;;;;;1.35;1.23;;;;;;;18.94;58.84;101831.56;10612633;28;20421;-76
2022/08/11 03:34:00;;;;;;;4.05;1.27;;;;;;;19.19;58.17;101824.66;10591191;27;20042;-76
2022/08/11 03:38:13;;;;;;;2.25;1.77;;;;;;;19.65;57.23;101820.88;10600168;28;20046;-76
2022/08/11 03:43:18;;;;;;;2.30;1.33;;;;;;;19.98;55.79;101818.72;10585997;28;20039;-76
2022/08/11 03:48:28;;;;;;;6.93;1.70;;;;;;;20.26;54.65;101819.38;10605858;28;20036;-76
2022/08/11 03:54:09;;;;;;;3.15;1.70;;;;;;;20.56;53.64;101815.00;10589585;28;20039;-76
2022/08/11 03:59:42;;;;;;;2.28;1.45;;;;;;;20.97;53.09;101813.88;10573813;28;20035;-75
2022/08/11 04:04:56;;;;;;;1.50;1.38;;;;;;;21.43;52.17;101804.16;10601351;28;20051;-76
2022/08/11 04:10:07;;;;;;;6.40;1.80;;;;;;;21.73;51.29;101796.81;10568208;28;20036;-76
2022/08/11 04:20:58;;;;;;;3.58;2.30;;;;;;;22.22;50.22;101781.50;10558651;28;20044;-76
2022/08/11 04:26:37;;;;;;;7.50;2.08;;;;;;;22.81;48.63;101790.84;10590204;28;20046;-77
2022/08/11 04:31:54;;;;;;;4.32;2.22;;;;;;;23.15;48.66;101789.88;10579494;28;20032;-76
2022/08/11 04:37:31;;;;;;;4.28;1.98;;;;;;;23.60;47.74;101789.22;10566950;28;20036;-76
2022/08/11 04:43:20;;;;;;;2.95;1.75;;;;;;;24.00;46.36;101783.97;10600032;28;20051;-76
2022/08/11 05:05:36;;;;;;;3.30;1.20;;;;;;;25.43;45.47;101764.34;10601206;28;20521;-75
2022/08/11 05:11:16;;;;;;;2.03;1.17;;;;;;;25.74;44.06;101771.31;10595487;28;20036;-76
2022/08/11 06:00:00;;;;;;;4.18;1.40;;;;;;;27.89;41.11;101767.88;10604588;28;20043;-76
2022/08/11 06:05:02;;;;;;;6.88;1.50;;;;;;;28.17;41.13;101756.34;10583740;28;20031;-76
2022/08/11 06:10:05;;;;;;;1.77;1.48;;;;;;;28.61;40.20;101764.41;10596356;28;20051;-76
2022/08/11 06:15:11;;;;;;;1.73;1.25;;;;;;;29.03;39.04;101758.66;10608448;28;20516;-76
2022/08/11 06:20:14;;;;;;;2.67;1.05;;;;;;;29.13;38.53;101763.66;10579291;28;20040;-76
2022/08/11 06:25:16;;;;;;;1.00;0.93;;;;;;;29.31;38.42;101780.88;10563378;28;20047;-76
2022/08/11 06:30:33;;;;;;;2.40;1.10;;;;;;;29.39;38.59;101774.94;10572909;28;20039;-76
2022/08/11 06:35:58;;;;;;;2.83;1.17;;;;;;;29.37;37.65;101768.88;10556858;28;20047;-76
2022/08/11 06:46:43;;;;;;;1.83;1.20;;;;;;;29.52;37.84;101758.59;10545686;28;20507;-76
2022/08/11 06:51:46;;;;;;;1.33;0.90;;;;;;;29.76;36.67;101767.78;10571002;28;20547;-76
2022/08/11 07:02:15;;;;;;;1.15;1.05;;;;;;;30.14;35.68;101753.28;10571128;28;20414;-76
2022/08/11 07:29:21;;;;;;;2.00;1.10;;;;;;;30.87;34.24;101731.69;10566522;28;20040;-76
2022/08/11 07:34:27;;;;;;;0.93;0.75;;;;;;;30.78;33.75;101736.91;10591089;28;20044;-76
2022/08/11 07:39:33;;;;;;;8.45;1.45;;;;;;;30.60;34.09;101724.59;10591798;28;20051;-76
2022/08/11 07:48:10;;;;;;;1.10;1.00;;;;;;;30.43;34.02;101711.91;10568939;28;20039;-76
2022/08/11 07:55:24;;;;;;;1.77;0.98;;;;;;;30.04;34.82;101716.34;10599553;28;20046;-76
2022/08/11 08:21:52;;;;;;;4.50;1.05;;;;;;;30.02;34.01;101713.88;10586125;28;20425;-77
2022/08/11 08:26:57;;;;;;;1.00;1.00;;;;;;;30.18;33.80;101706.00;10574545;28;20051;-77
2022/08/11 08:32:01;;;;;;;1.10;0.88;;;;;;;30.10;33.67;101712.00;10563221;28;20040;-78
2022/08/11 08:37:04;;;;;;;1.88;1.30;;;;;;;30.19;33.60;101713.28;10597879;28;20043;-79
2022/08/11 08:42:11;;;;;;;4.10;1.92;;;;;;;30.17;34.58;101715.69;10578597;28;20047;-78
2022/08/11 08:47:15;;;;;;;3.65;1.55;;;;;;;29.66;34.12;101718.34;10596372;28;20047;-77
2022/08/11 08:52:19;;;;;;;1.83;1.10;;;;;;;29.42;35.30;101713.97;10578747;28;20043;-77
2022/08/11 08:57:22;;;;;;;1.45;1.10;;;;;;;29.43;35.29;101713.59;10587755;28;20044;-77
2022/08/11 09:02:25;;;;;;;1.88;1.25;;;;;;;29.39;35.20;101709.91;10576869;28;20043;-77
2022/08/11 09:07:27;;;;;;;2.88;1.20;;;;;;;29.17;35.71;101708.00;10577439;28;20114;-78
2022/08/11 09:12:30;;;;;;;1.70;1.10;;;;;;;28.93;36.48;101703.59;10597115;28;20051;-78
2022/08/11 09:17:44;;;;;;;2.03;1.05;;;;;;;28.96;36.47;101691.53;10567044;28;20042;-78
2022/08/11 09:28:10;;;;;;;0.88;0.88;;;;;;;28.33;36.20;101694.97;10584711;28;20050;-78
2022/08/11 09:33:15;;;;;;;0.95;0.95;;;;;;;27.85;37.08;101691.63;10572160;28;20051;-78
2022/08/11 09:49:04;;;;;;;1.90;1.38;;;;;;;26.36;39.45;101691.88;10607737;28;20036;-78
2022/08/11 09:54:07;;;;;;;2.53;1.33;;;;;;;26.11;39.75;101685.56;10560895;28;20052;-76
2022/08/11 09:59:09;;;;;;;1.73;1.20;;;;;;;26.04;40.10;101671.34;10583915;28;20044;-81
2022/08/11 10:04:14;;;;;;;2.45;1.05;;;;;;;25.95;41.11;101678.28;10583432;28;20039;-78
2022/08/11 10:09:18;;;;;;;2.50;1.25;;;;;;;25.76;41.78;101684.63;10594856;28;20513;-78
2022/08/11 10:19:47;;;;;;;2.45;1.50;;;;;;;25.59;42.13;101679.28;10600493;28;20035;-78
2022/08/11 10:35:33;;;;;;;2.30;1.08;;;;;;;25.35;42.22;101655.72;10574308;28;20031;-80
2022/08/11 10:40:39;;;;;;;2.67;1.30;;;;;;;25.26;42.52;101657.84;10579520;28;20039;-76
2022/08/11 10:51:18;;;;;;;2.08;1.00;;;;;;;25.21;42.21;101653.31;10530740;28;20514;-78
2022/08/11 11:01:43;;;;;;;1.58;1.10;;;;;;;25.03;41.56;101645.53;10567295;28;20071;-81
2022/08/11 11:06:50;;;;;;;1.63;1.30;;;;;;;24.99;42.52;101641.75;10572557;28;20032;-80
2022/08/11 11:22:52;;;;;;;1.20;1.10;;;;;;;25.00;42.47;101635.00;10608212;28;20048;-80
2022/08/11 11:28:33;;;;;;;1.73;1.25;;;;;;;25.01;43.03;101628.22;10552492;28;20039;-82
2022/08/11 11:34:10;;;;;;;2.47;1.25;;;;;;;25.03;42.09;101623.88;10554383;28;20043;-82
2022/08/11 11:39:16;;;;;;;1.20;1.10;;;;;;;25.02;42.12;101619.44;10529786;28;20090;-81
2022/08/11 11:44:21;;;;;;;1.10;1.00;;;;;;;25.01;42.83;101619.78;10567685;28;20406;-83
2022/08/11 11:49:27;;;;;;;1.38;1.25;;;;;;;25.06;43.04;101619.53;10577288;28;20494;-84
2022/08/11 11:54:32;;;;;;;0.95;0.90;;;;;;;25.03;42.91;101609.03;10600416;28;20129;-77
2022/08/11 12:04:55;;;;;;;1.08;0.82;;;;;;;24.96;42.58;101595.53;10592705;28;20039;-80
2022/08/11 12:09:58;;;;;;;2.00;0.88;;;;;;;24.95;42.84;101599.53;10593015;28;20043;-78
2022/08/11 12:15:00;;;;;;;0.88;0.88;;;;;;;24.99;42.14;101589.19;10556960;28;20048;-79
2022/08/11 12:20:03;;;;;;;1.60;1.02;;;;;;;25.04;42.59;101583.38;10587796;28;20047;-81
2022/08/11 12:30:27;;;;;;;2.72;0.80;;;;;;;24.97;41.84;101577.50;10609335;28;20039;-80
2022/08/11 12:35:30;;;;;;;2.42;1.10;;;;;;;25.03;41.77;101576.13;10564107;28;20036;-79
2022/08/11 12:45:57;;;;;;;1.50;1.02;;;;;;;24.96;42.36;101576.69;10576544;28;20486;-81
2022/08/11 13:07:18;;;;;;;1.50;1.10;;;;;;;24.92;42.01;101570.16;10569589;28;20051;-81
2022/08/11 13:17:47;;;;;;;2.42;0.98;;;;;;;24.80;42.57;101564.56;10566445;28;20452;-81
2022/08/11 13:22:52;;;;;;;0.75;0.75;;;;;;;24.81;42.65;101549.38;10593474;28;20054;-79
2022/08/11 13:27:57;;;;;;;0.98;0.98;;;;;;;24.81;42.08;101556.97;10557762;28;20054;-79
2022/08/11 13:33:00;;;;;;;1.10;1.00;;;;;;;24.80;42.21;101555.34;10607701;28;20043;-80
2022/08/11 13:38:03;;;;;;;5.00;1.13;;;;;;;24.80;42.78;101544.94;10606011;28;20055;-79
2022/08/11 13:43:06;;;;;;;1.77;0.70;;;;;;;24.78;42.84;101544.47;10598625;28;20063;-79
2022/08/11 13:48:11;;;;;;;2.35;0.88;;;;;;;24.77;42.85;101540.03;10590045;28;20040;-79
2022/08/11 13:53:16;;;;;;;1.10;0.82;;;;;;;24.74;43.57;101534.31;10587946;28;20039;-80
2022/08/11 13:58:19;;;;;;;1.10;0.65;;;;;;;24.69;43.15;101538.19;10583393;28;20051;-79
2022/08/11 14:03:24;;;;;;;1.08;0.75;;;;;;;24.71;43.59;101524.63;10602668;28;20062;-79
2022/08/11 14:08:31;;;;;;;4.15;0.90;;;;;;;24.68;44.26;101528.16;10590197;28;20531;-80
2022/08/11 14:13:39;;;;;;;1.77;0.93;;;;;;;24.66;43.85;101513.66;10560485;28;20056;-80
2022/08/11 14:18:44;;;;;;;0.90;0.90;;;;;;;24.67;44.35;101509.69;10590511;28;20046;-78
2022/08/11 14:23:54;;;;;;;3.92;1.00;;;;;;;24.66;44.68;101505.22;10596480;28;20464;-79
2022/08/11 14:29:12;;;;;;;1.77;1.55;;;;;;;24.67;43.88;101495.63;10580492;28;20040;-80
2022/08/11 14:34:19;;;;;;;1.30;0.90;;;;;;;24.64;43.96;101490.72;10580728;28;20070;-78
2022/08/11 14:39:24;;;;;;;4.15;0.68;;;;;;;24.63;44.72;101491.88;10613122;28;20038;-81
2022/08/11 14:49:50;;;;;;;2.95;0.98;;;;;;;24.60;44.88;101487.00;10599974;28;20078;-81
2022/08/11 15:00:15;;;;;;;1.70;1.00;;;;;;;24.50;44.41;101496.75;10556710;28;20043;-81
2022/08/11 15:05:19;;;;;;;3.10;1.08;;;;;;;24.44;43.64;101489.72;10604641;28;20040;-83
2022/08/11 15:10:21;;;;;;;1.13;0.98;;;;;;;24.42;44.69;101489.28;10599506;28;20040;-83
2022/08/11 15:26:14;;;;;;;1.05;0.90;;;;;;;24.33;45.11;101475.41;10563119;28;20043;-87
2022/08/11 15:47:22;;;;;;;1.30;1.00;;;;;;;24.24;45.14;101471.88;10569879;28;20036;-88
2022/08/11 15:52:29;;;;;;;2.20;1.20;;;;;;;24.21;45.30;101474.56;10555499;28;20032;-93
2022/08/11 16:08:22;;;;;;;1.80;1.02;;;;;;;23.95;45.31;101478.59;10589323;28;20047;-85
2022/08/11 16:18:39;;;;;;;1.70;0.85;;;;;;;23.86;45.31;101479.88;10570947;28;20366;-83
2022/08/11 16:23:44;;;;;;;1.05;0.95;;;;;;;23.80;46.26;101475.66;10590349;28;20054;-82
2022/08/11 16:28:50;;;;;;;2.88;1.52;;;;;;;23.71;46.04;101476.59;10591258;28;20581;-82
2022/08/11 16:33:53;;;;;;;1.75;1.17;;;;;;;23.60;46.78;101472.59;10596766;28;20032;-82
2022/08/11 16:38:56;;;;;;;3.05;1.02;;;;;;;23.49;46.80;101474.22;10573575;28;20042;-80
2022/08/11 16:49:26;;;;;;;1.10;0.82;;;;;;;23.33;47.48;101467.66;10566277;28;20039;-81
2022/08/11 16:54:30;;;;;;;2.08;1.27;;;;;;;23.27;47.80;101471.84;10610852;28;20040;-80
2022/08/11 16:59:35;;;;;;;2.13;1.27;;;;;;;23.23;47.29;101468.91;10584506;28;20046;-81
2022/08/11 17:16:06;;;;;;;1.30;1.15;;;;;;;23.03;48.34;101476.22;10594934;28;20043;-81
2022/08/11 17:27:07;;;;;;;2.47;1.30;;;;;;;22.88;48.21;101460.06;10587010;28;20413;-81
2022/08/11 17:37:37;;;;;;;2.10;1.35;;;;;;;22.75;48.17;101459.19;10586580;28;20036;-81
2022/08/11 18:04:09;;;;;;;1.33;1.13;;;;;;;22.46;49.14;101462.91;10585748;28;20498;-81
